TimeEDT,TemperatureF,Dew PointF,Humidity,Sea Level PressureIn,VisibilityMPH,Wind Direction,Wind SpeedMPH,Gust SpeedMPH,PrecipitationIn,Events,Conditions,WindDirDegrees,DateUTC
12:53 AM,64.0,57.0,78,30.17,10.0,Calm,Calm,-,N/A,,Overcast,0,2013-04-22 04:53:00
1:53 AM,63.0,55.9,78,30.14,10.0,NE,4.6,-,N/A,,Overcast,40,2013-04-22 05:53:00
2:53 AM,61.0,55.9,83,30.13,10.0,Calm,Calm,-,N/A,,Mostly Cloudy,0,2013-04-22 06:53:00
3:16 AM,60.8,55.4,82,30.09,10.0,Calm,Calm,-,N/A,,Scattered Clouds,0,2013-04-22 07:16:00
3:36 AM,60.8,57.2,88,30.09,10.0,NE,3.5,-,N/A,,Mostly Cloudy,40,2013-04-22 07:36:00
3:53 AM,63.0,57.0,81,30.13,10.0,NNE,3.5,-,N/A,,Overcast,30,2013-04-22 07:53:00
4:06 AM,62.6,57.2,82,30.09,10.0,NNE,4.6,-,N/A,,Overcast,30,2013-04-22 08:06:00
4:53 AM,64.0,57.0,78,30.13,10.0,NNE,3.5,-,N/A,,Overcast,30,2013-04-22 08:53:00
5:53 AM,64.0,57.0,78,30.13,10.0,NE,3.5,-,N/A,,Overcast,40,2013-04-22 09:53:00
6:53 AM,63.0,57.0,81,30.14,10.0,Calm,Calm,-,N/A,,Overcast,0,2013-04-22 10:53:00
7:53 AM,63.0,57.0,81,30.16,10.0,NE,3.5,-,N/A,,Overcast,40,2013-04-22 11:53:00
8:53 AM,64.9,57.0,75,30.15,10.0,ENE,8.1,-,N/A,,Overcast,60,2013-04-22 12:53:00
9:53 AM,64.9,57.0,75,30.17,10.0,ENE,11.5,-,N/A,,Overcast,60,2013-04-22 13:53:00
10:53 AM,66.9,57.0,70,30.18,10.0,NE,6.9,-,N/A,,Overcast,40,2013-04-22 14:53:00
11:53 AM,69.1,57.9,68,30.19,10.0,NNE,10.4,18.4,N/A,,Overcast,30,2013-04-22 15:53:00
12:53 PM,70.0,57.9,65,30.17,10.0,NNE,11.5,-,N/A,,Overcast,20,2013-04-22 16:53:00
1:13 PM,69.8,57.2,64,30.13,10.0,NNE,10.4,-,N/A,,Overcast,20,2013-04-22 17:13:00
1:53 PM,71.1,57.9,63,30.15,10.0,NNE,11.5,-,N/A,,Overcast,30,2013-04-22 17:53:00
2:53 PM,71.1,57.9,63,30.16,10.0,NNE,5.8,-,N/A,,Overcast,20,2013-04-22 18:53:00
3:53 PM,72.0,57.9,61,30.13,10.0,NNE,9.2,-,N/A,,Overcast,30,2013-04-22 19:53:00
4:53 PM,72.0,57.9,61,30.12,10.0,North,8.1,-,N/A,,Overcast,10,2013-04-22 20:53:00
5:53 PM,71.1,57.0,61,30.12,10.0,NNE,10.4,-,N/A,,Overcast,30,2013-04-22 21:53:00
6:53 PM,71.1,57.9,63,30.12,10.0,NNE,5.8,-,N/A,,Overcast,30,2013-04-22 22:53:00
7:53 PM,70.0,57.9,65,30.12,10.0,NE,3.5,-,N/A,,Mostly Cloudy,50,2013-04-22 23:53:00
8:53 PM,68.0,57.9,70,30.13,10.0,NE,4.6,-,N/A,,Mostly Cloudy,50,2013-04-23 00:53:00
9:53 PM,64.9,57.0,75,30.14,10.0,NE,5.8,-,N/A,,Partly Cloudy,50,2013-04-23 01:53:00
10:53 PM,63.0,57.0,81,30.15,10.0,ENE,4.6,-,N/A,,Clear,60,2013-04-23 02:53:00
11:53 PM,63.0,57.0,81,30.15,10.0,ENE,3.5,-,N/A,,Overcast,60,2013-04-23 03:53:00